Time,TemperatureF,DewpointF,PressureIn,WindDirection,WindDirectionDegrees,WindSpeedMPH,WindSpeedGustMPH,Humidity,HourlyPrecipIn,Conditions,Clouds,dailyrainin,SoftwareType,DateUTC
2013-08-17 00:01:00,66.0,62.3,29.95,ENE,68,5.0,9.0,88,0.00,,,0.00,Weather View 32 v70,2013-08-17 04:01:00,
2013-08-17 00:02:00,66.0,62.3,29.95,East,90,2.0,9.0,88,0.00,,,0.00,Weather View 32 v70,2013-08-17 04:02:00,
2013-08-17 00:07:00,66.0,62.0,29.95,ENE,68,1.0,8.0,87,0.00,,,0.00,Weather View 32 v70,2013-08-17 04:07:00,
2013-08-17 00:12:00,66.0,62.0,29.96,East,90,3.0,8.0,87,0.00,,,0.00,Weather View 32 v70,2013-08-17 04:12:00,
2013-08-17 00:17:00,66.0,62.0,29.96,East,90,3.0,8.0,87,0.00,,,0.00,Weather View 32 v70,2013-08-17 04:17:00,
2013-08-17 00:22:00,66.0,62.0,29.95,ENE,68,1.0,8.0,87,0.00,,,0.00,Weather View 32 v70,2013-08-17 04:22:00,
2013-08-17 00:27:00,66.0,62.0,29.95,ENE,68,3.0,8.0,87,0.00,,,0.00,Weather View 32 v70,2013-08-17 04:27:00,
2013-08-17 00:32:00,66.0,62.0,29.96,ENE,68,3.0,8.0,87,0.00,,,0.00,Weather View 32 v70,2013-08-17 04:32:00,
2013-08-17 00:37:00,66.0,62.0,29.96,East,90,2.0,8.0,87,0.00,,,0.00,Weather View 32 v70,2013-08-17 04:37:00,
2013-08-17 00:42:00,66.0,62.3,29.95,ENE,68,1.0,8.0,88,0.00,,,0.00,Weather View 32 v70,2013-08-17 04:42:00,
2013-08-17 00:47:00,66.0,62.7,29.95,ENE,68,1.0,8.0,89,0.00,,,0.00,Weather View 32 v70,2013-08-17 04:47:00,
2013-08-17 00:52:00,65.0,62.0,29.95,ENE,68,3.0,8.0,90,0.00,,,0.00,Weather View 32 v70,2013-08-17 04:52:00,
2013-08-17 00:57:00,65.0,62.0,29.95,East,90,0.0,8.0,90,0.00,,,0.00,Weather View 32 v70,2013-08-17 04:57:00,
2013-08-17 01:02:00,65.0,62.6,29.95,ENE,68,3.0,7.0,92,0.00,,,0.00,Weather View 32 v70,2013-08-17 05:02:00,
2013-08-17 01:07:00,65.0,62.6,29.95,ENE,68,2.0,6.0,92,0.00,,,0.00,Weather View 32 v70,2013-08-17 05:07:00,
2013-08-17 01:12:00,65.0,63.2,29.95,East,90,3.0,6.0,94,0.00,,,0.00,Weather View 32 v70,2013-08-17 05:12:00,
2013-08-17 01:17:00,64.0,62.5,29.95,East,90,1.0,6.0,95,0.00,,,0.00,Weather View 32 v70,2013-08-17 05:17:00,
2013-08-17 01:22:00,64.0,62.8,29.95,East,90,3.0,6.0,96,0.01,,,0.01,Weather View 32 v70,2013-08-17 05:22:00,
2013-08-17 01:27:00,64.0,63.1,29.95,East,90,3.0,6.0,97,0.01,,,0.01,Weather View 32 v70,2013-08-17 05:27:00,
2013-08-17 01:32:00,64.0,63.4,29.95,East,90,4.0,6.0,98,0.02,,,0.02,Weather View 32 v70,2013-08-17 05:32:00,
2013-08-17 01:37:00,64.0,63.4,29.96,East,90,0.0,6.0,98,0.03,,,0.03,Weather View 32 v70,2013-08-17 05:37:00,
2013-08-17 01:42:00,63.0,62.7,29.96,East,90,2.0,6.0,99,0.03,,,0.03,Weather View 32 v70,2013-08-17 05:42:00,
2013-08-17 01:47:00,63.0,63.0,29.95,ENE,68,0.0,5.0,100,0.03,,,0.03,Weather View 32 v70,2013-08-17 05:47:00,
2013-08-17 01:52:00,63.0,63.0,29.95,East,90,1.0,5.0,100,0.03,,,0.03,Weather View 32 v70,2013-08-17 05:52:00,
2013-08-17 01:57:00,63.0,63.0,29.95,ENE,68,1.0,5.0,100,0.03,,,0.03,Weather View 32 v70,2013-08-17 05:57:00,
2013-08-17 02:02:00,63.0,63.0,29.95,ENE,68,1.0,5.0,100,0.04,,,0.04,Weather View 32 v70,2013-08-17 06:02:00,
2013-08-17 02:07:00,63.0,63.0,29.95,East,90,1.0,6.0,100,0.05,,,0.05,Weather View 32 v70,2013-08-17 06:07:00,
2013-08-17 02:12:00,63.0,63.0,29.95,North,0,1.0,6.0,100,0.05,,,0.05,Weather View 32 v70,2013-08-17 06:12:00,
2013-08-17 02:17:00,63.0,63.0,29.95,East,90,3.0,6.0,100,0.07,,,0.07,Weather View 32 v70,2013-08-17 06:17:00,
2013-08-17 02:22:00,63.0,63.0,29.95,ENE,68,1.0,6.0,100,0.06,,,0.07,Weather View 32 v70,2013-08-17 06:22:00,
2013-08-17 02:27:00,63.0,63.0,29.95,North,0,0.0,6.0,100,0.06,,,0.07,Weather View 32 v70,2013-08-17 06:27:00,
2013-08-17 02:32:00,63.0,63.0,29.95,North,0,3.0,6.0,100,0.06,,,0.08,Weather View 32 v70,2013-08-17 06:32:00,
2013-08-17 02:37:00,62.0,62.0,29.94,NNW,338,1.0,6.0,100,0.05,,,0.08,Weather View 32 v70,2013-08-17 06:37:00,
2013-08-17 02:42:00,62.0,62.0,29.94,North,0,0.0,6.0,100,0.05,,,0.08,Weather View 32 v70,2013-08-17 06:42:00,
2013-08-17 02:47:00,63.0,63.0,29.94,NNW,338,3.0,6.0,100,0.05,,,0.08,Weather View 32 v70,2013-08-17 06:47:00,
2013-08-17 02:52:00,62.0,62.0,29.94,North,0,1.0,6.0,100,0.05,,,0.08,Weather View 32 v70,2013-08-17 06:52:00,
2013-08-17 02:57:00,63.0,63.0,29.94,North,0,1.0,6.0,100,0.05,,,0.08,Weather View 32 v70,2013-08-17 06:57:00,
2013-08-17 03:02:00,63.0,63.0,29.94,North,0,1.0,6.0,100,0.05,,,0.09,Weather View 32 v70,2013-08-17 07:02:00,
2013-08-17 03:07:00,62.0,62.0,29.94,North,0,1.0,5.0,100,0.04,,,0.09,Weather View 32 v70,2013-08-17 07:07:00,
2013-08-17 03:12:00,63.0,63.0,29.94,North,0,1.0,5.0,100,0.04,,,0.09,Weather View 32 v70,2013-08-17 07:12:00,
2013-08-17 03:17:00,63.0,63.0,29.94,North,0,1.0,5.0,100,0.02,,,0.09,Weather View 32 v70,2013-08-17 07:17:00,
2013-08-17 03:22:00,62.0,62.0,29.93,North,0,1.0,5.0,100,0.03,,,0.10,Weather View 32 v70,2013-08-17 07:22:00,
2013-08-17 03:27:00,62.0,62.0,29.94,North,0,1.0,7.0,100,0.04,,,0.11,Weather View 32 v70,2013-08-17 07:27:00,
2013-08-17 03:32:00,62.0,62.0,29.94,North,0,1.0,7.0,100,0.05,,,0.14,Weather View 32 v70,2013-08-17 07:32:00,
2013-08-17 03:37:00,62.0,62.0,29.94,ENE,68,1.0,7.0,100,0.11,,,0.19,Weather View 32 v70,2013-08-17 07:37:00,
2013-08-17 03:42:00,62.0,62.0,29.94,West,270,1.0,7.0,100,0.14,,,0.23,Weather View 32 v70,2013-08-17 07:42:00,
2013-08-17 03:47:00,62.0,62.0,29.93,ENE,68,1.0,7.0,100,0.16,,,0.24,Weather View 32 v70,2013-08-17 07:47:00,
2013-08-17 03:52:00,62.0,62.0,29.93,ENE,68,1.0,7.0,100,0.16,,,0.24,Weather View 32 v70,2013-08-17 07:52:00,
2013-08-17 03:57:00,62.0,62.0,29.93,North,0,1.0,7.0,100,0.17,,,0.25,Weather View 32 v70,2013-08-17 07:57:00,
2013-08-17 04:02:00,62.0,62.0,29.93,ENE,68,1.0,7.0,100,0.16,,,0.25,Weather View 32 v70,2013-08-17 08:02:00,
2013-08-17 04:07:00,62.0,62.0,29.93,NNW,338,2.0,7.0,100,0.17,,,0.26,Weather View 32 v70,2013-08-17 08:07:00,
2013-08-17 04:12:00,62.0,62.0,29.93,North,0,3.0,7.0,100,0.17,,,0.26,Weather View 32 v70,2013-08-17 08:12:00,
2013-08-17 04:17:00,62.0,62.0,29.93,North,0,3.0,7.0,100,0.17,,,0.26,Weather View 32 v70,2013-08-17 08:17:00,
2013-08-17 04:22:00,62.0,62.0,29.94,ENE,68,1.0,7.0,100,0.16,,,0.26,Weather View 32 v70,2013-08-17 08:22:00,
2013-08-17 04:27:00,62.0,62.0,29.94,ENE,68,3.0,7.0,100,0.16,,,0.27,Weather View 32 v70,2013-08-17 08:27:00,
2013-08-17 04:32:00,62.0,62.0,29.94,ENE,68,0.0,5.0,100,0.14,,,0.27,Weather View 32 v70,2013-08-17 08:32:00,
2013-08-17 04:37:00,62.0,62.0,29.94,East,90,0.0,6.0,100,0.08,,,0.27,Weather View 32 v70,2013-08-17 08:37:00,
2013-08-17 04:42:00,62.0,62.0,29.94,ENE,68,0.0,6.0,100,0.05,,,0.27,Weather View 32 v70,2013-08-17 08:42:00,
2013-08-17 04:47:00,62.0,62.0,29.94,ENE,68,1.0,6.0,100,0.03,,,0.27,Weather View 32 v70,2013-08-17 08:47:00,
2013-08-17 04:52:00,62.0,62.0,29.94,North,0,2.0,6.0,100,0.03,,,0.27,Weather View 32 v70,2013-08-17 08:52:00,
2013-08-17 04:57:00,62.0,62.0,29.94,North,0,1.0,6.0,100,0.02,,,0.27,Weather View 32 v70,2013-08-17 08:57:00,
2013-08-17 05:02:00,62.0,62.0,29.93,ENE,68,1.0,6.0,100,0.02,,,0.27,Weather View 32 v70,2013-08-17 09:02:00,
2013-08-17 05:07:00,62.0,62.0,29.93,North,0,1.0,6.0,100,0.01,,,0.27,Weather View 32 v70,2013-08-17 09:07:00,
2013-08-17 05:12:00,62.0,62.0,29.93,NNW,338,2.0,6.0,100,0.01,,,0.27,Weather View 32 v70,2013-08-17 09:12:00,
2013-08-17 05:17:00,62.0,62.0,29.94,ENE,68,1.0,6.0,100,0.01,,,0.27,Weather View 32 v70,2013-08-17 09:17:00,
2013-08-17 05:22:00,62.0,62.0,29.94,ENE,68,1.0,6.0,100,0.01,,,0.27,Weather View 32 v70,2013-08-17 09:22:00,
2013-08-17 05:27:00,62.0,62.0,29.94,North,0,1.0,6.0,100,0.00,,,0.28,Weather View 32 v70,2013-08-17 09:27:00,
2013-08-17 05:32:00,62.0,62.0,29.94,WSW,248,1.0,6.0,100,0.01,,,0.28,Weather View 32 v70,2013-08-17 09:32:00,
2013-08-17 05:37:00,62.0,62.0,29.94,ENE,68,1.0,6.0,100,0.01,,,0.28,Weather View 32 v70,2013-08-17 09:37:00,
2013-08-17 05:42:00,62.0,62.0,29.95,North,0,2.0,6.0,100,0.01,,,0.28,Weather View 32 v70,2013-08-17 09:42:00,
2013-08-17 05:47:00,62.0,62.0,29.94,ENE,68,2.0,7.0,100,0.01,,,0.28,Weather View 32 v70,2013-08-17 09:47:00,
2013-08-17 05:52:00,62.0,62.0,29.94,North,0,2.0,7.0,100,0.01,,,0.28,Weather View 32 v70,2013-08-17 09:52:00,
2013-08-17 05:57:00,62.0,62.0,29.94,North,0,1.0,7.0,100,0.01,,,0.28,Weather View 32 v70,2013-08-17 09:57:00,
2013-08-17 06:02:00,62.0,62.0,29.94,ENE,68,1.0,7.0,100,0.01,,,0.28,Weather View 32 v70,2013-08-17 10:02:00,
2013-08-17 06:07:00,62.0,62.0,29.95,ENE,68,1.0,7.0,100,0.01,,,0.28,Weather View 32 v70,2013-08-17 10:07:00,
2013-08-17 06:12:00,62.0,62.0,29.95,North,0,2.0,7.0,100,0.01,,,0.28,Weather View 32 v70,2013-08-17 10:12:00,
2013-08-17 06:17:00,62.0,62.0,29.95,NNW,338,1.0,7.0,100,0.01,,,0.28,Weather View 32 v70,2013-08-17 10:17:00,
2013-08-17 06:22:00,62.0,62.0,29.95,North,0,1.0,7.0,100,0.01,,,0.28,Weather View 32 v70,2013-08-17 10:22:00,
2013-08-17 06:27:00,62.0,62.0,29.95,ENE,68,1.0,7.0,100,0.02,,,0.29,Weather View 32 v70,2013-08-17 10:27:00,
2013-08-17 06:32:00,62.0,62.0,29.95,ENE,68,1.0,7.0,100,0.01,,,0.29,Weather View 32 v70,2013-08-17 10:32:00,
2013-08-17 06:37:00,62.0,62.0,29.95,North,0,2.0,8.0,100,0.01,,,0.29,Weather View 32 v70,2013-08-17 10:37:00,
2013-08-17 06:42:00,62.0,62.0,29.95,ENE,68,6.0,8.0,100,0.01,,,0.29,Weather View 32 v70,2013-08-17 10:42:00,
2013-08-17 06:47:00,62.0,62.0,29.95,ENE,68,3.0,9.0,100,0.02,,,0.30,Weather View 32 v70,2013-08-17 10:47:00,
2013-08-17 06:52:00,62.0,62.0,29.95,ENE,68,1.0,9.0,100,0.03,,,0.31,Weather View 32 v70,2013-08-17 10:52:00,
2013-08-17 06:57:00,62.0,62.0,29.95,North,0,1.0,9.0,100,0.05,,,0.33,Weather View 32 v70,2013-08-17 10:57:00,
2013-08-17 07:02:00,62.0,62.0,29.95,West,270,5.0,9.0,100,0.07,,,0.35,Weather View 32 v70,2013-08-17 11:02:00,
2013-08-17 07:07:00,62.0,62.0,29.95,ENE,68,1.0,9.0,100,0.07,,,0.35,Weather View 32 v70,2013-08-17 11:07:00,
2013-08-17 07:12:00,62.0,62.0,29.96,North,0,2.0,9.0,100,0.08,,,0.36,Weather View 32 v70,2013-08-17 11:12:00,
2013-08-17 07:17:00,62.0,62.0,29.96,ENE,68,1.0,9.0,100,0.08,,,0.36,Weather View 32 v70,2013-08-17 11:17:00,
2013-08-17 07:22:00,62.0,62.0,29.96,ENE,68,1.0,9.0,100,0.08,,,0.36,Weather View 32 v70,2013-08-17 11:22:00,
2013-08-17 07:27:00,62.0,62.0,29.96,ENE,68,6.0,9.0,100,0.07,,,0.36,Weather View 32 v70,2013-08-17 11:27:00,
2013-08-17 07:32:00,62.0,62.0,29.96,ENE,68,2.0,9.0,100,0.07,,,0.36,Weather View 32 v70,2013-08-17 11:32:00,
2013-08-17 07:37:00,62.0,62.0,29.96,ENE,68,2.0,9.0,100,0.07,,,0.36,Weather View 32 v70,2013-08-17 11:37:00,
2013-08-17 07:42:00,62.0,62.0,29.96,ENE,68,1.0,9.0,100,0.07,,,0.36,Weather View 32 v70,2013-08-17 11:42:00,
2013-08-17 07:47:00,62.0,62.0,29.96,NNW,338,3.0,8.0,100,0.06,,,0.36,Weather View 32 v70,2013-08-17 11:47:00,
2013-08-17 07:52:00,62.0,62.0,29.96,North,0,2.0,8.0,100,0.05,,,0.36,Weather View 32 v70,2013-08-17 11:52:00,
2013-08-17 07:57:00,62.0,62.0,29.96,North,0,2.0,6.0,100,0.03,,,0.36,Weather View 32 v70,2013-08-17 11:57:00,
2013-08-17 08:02:00,62.0,62.0,29.96,North,0,2.0,6.0,100,0.01,,,0.36,Weather View 32 v70,2013-08-17 12:02:00,
2013-08-17 08:06:00,62.0,62.0,29.96,ENE,68,1.0,6.0,100,0.01,,,0.36,Weather View 32 v70,2013-08-17 12:06:00,
2013-08-17 08:11:00,62.0,62.0,29.96,ENE,68,1.0,6.0,100,0.01,,,0.36,Weather View 32 v70,2013-08-17 12:11:00,
2013-08-17 08:16:00,63.0,63.0,29.96,East,90,6.0,6.0,100,0.00,,,0.36,Weather View 32 v70,2013-08-17 12:16:00,
2013-08-17 08:21:00,62.0,62.0,29.95,North,0,1.0,7.0,100,0.00,,,0.36,Weather View 32 v70,2013-08-17 12:21:00,
2013-08-17 08:26:00,62.0,62.0,29.95,North,0,3.0,7.0,100,0.00,,,0.36,Weather View 32 v70,2013-08-17 12:26:00,
2013-08-17 08:31:00,63.0,63.0,29.96,ENE,68,1.0,7.0,100,0.00,,,0.36,Weather View 32 v70,2013-08-17 12:31:00,
2013-08-17 08:36:00,63.0,63.0,29.96,ENE,68,3.0,8.0,100,0.00,,,0.36,Weather View 32 v70,2013-08-17 12:36:00,
2013-08-17 08:41:00,63.0,63.0,29.96,ENE,68,6.0,9.0,100,0.00,,,0.36,Weather View 32 v70,2013-08-17 12:41:00,
2013-08-17 08:46:00,63.0,63.0,29.96,North,0,5.0,9.0,100,0.00,,,0.36,Weather View 32 v70,2013-08-17 12:46:00,
2013-08-17 08:51:00,63.0,63.0,29.96,ENE,68,4.0,10.0,100,0.00,,,0.36,Weather View 32 v70,2013-08-17 12:51:00,
2013-08-17 08:56:00,63.0,63.0,29.97,ENE,68,2.0,10.0,100,0.00,,,0.36,Weather View 32 v70,2013-08-17 12:56:00,
2013-08-17 09:01:00,63.0,63.0,29.97,ENE,68,1.0,10.0,100,0.00,,,0.36,Weather View 32 v70,2013-08-17 13:01:00,
2013-08-17 09:06:00,63.0,63.0,29.97,North,0,1.0,10.0,100,0.00,,,0.36,Weather View 32 v70,2013-08-17 13:06:00,
2013-08-17 09:11:00,63.0,63.0,29.97,North,0,2.0,10.0,100,0.00,,,0.36,Weather View 32 v70,2013-08-17 13:11:00,
2013-08-17 09:16:00,63.0,63.0,29.97,NNW,338,1.0,10.0,100,0.00,,,0.36,Weather View 32 v70,2013-08-17 13:16:00,
2013-08-17 09:21:00,63.0,63.0,29.97,ENE,68,0.0,10.0,100,0.00,,,0.36,Weather View 32 v70,2013-08-17 13:21:00,
2013-08-17 09:26:00,63.0,63.0,29.97,ENE,68,1.0,10.0,100,0.00,,,0.36,Weather View 32 v70,2013-08-17 13:26:00,
2013-08-17 09:31:00,63.0,63.0,29.97,ENE,68,3.0,10.0,100,0.00,,,0.36,Weather View 32 v70,2013-08-17 13:31:00,
2013-08-17 09:36:00,63.0,63.0,29.97,NNW,338,2.0,10.0,100,0.00,,,0.36,Weather View 32 v70,2013-08-17 13:36:00,
2013-08-17 09:41:00,63.0,63.0,29.97,East,90,6.0,10.0,100,0.00,,,0.36,Weather View 32 v70,2013-08-17 13:41:00,
2013-08-17 09:46:00,63.0,63.0,29.97,ENE,68,5.0,10.0,100,0.00,,,0.36,Weather View 32 v70,2013-08-17 13:46:00,
2013-08-17 09:51:00,63.0,63.0,29.97,ENE,68,2.0,10.0,100,0.00,,,0.36,Weather View 32 v70,2013-08-17 13:51:00,
2013-08-17 09:56:00,63.0,63.0,29.97,North,0,2.0,10.0,100,0.00,,,0.36,Weather View 32 v70,2013-08-17 13:56:00,
2013-08-17 10:01:00,63.0,63.0,29.97,ENE,68,2.0,10.0,100,0.00,,,0.36,Weather View 32 v70,2013-08-17 14:01:00,
2013-08-17 10:06:00,63.0,63.0,29.97,ENE,68,2.0,10.0,100,0.00,,,0.36,Weather View 32 v70,2013-08-17 14:06:00,
2013-08-17 10:11:00,64.0,64.0,29.97,East,90,3.0,10.0,100,0.00,,,0.36,Weather View 32 v70,2013-08-17 14:11:00,
2013-08-17 10:16:00,64.0,64.0,29.97,North,0,1.0,10.0,100,0.00,,,0.36,Weather View 32 v70,2013-08-17 14:16:00,
2013-08-17 10:21:00,64.0,64.0,29.97,North,0,3.0,10.0,100,0.00,,,0.36,Weather View 32 v70,2013-08-17 14:21:00,
2013-08-17 10:26:00,64.0,64.0,29.97,ENE,68,1.0,10.0,100,0.00,,,0.36,Weather View 32 v70,2013-08-17 14:26:00,
2013-08-17 10:31:00,64.0,64.0,29.98,ENE,68,1.0,10.0,100,0.00,,,0.36,Weather View 32 v70,2013-08-17 14:31:00,
2013-08-17 10:36:00,64.0,64.0,29.97,North,0,1.0,10.0,100,0.00,,,0.36,Weather View 32 v70,2013-08-17 14:36:00,
2013-08-17 10:41:00,64.0,64.0,29.98,ENE,68,2.0,10.0,100,0.00,,,0.36,Weather View 32 v70,2013-08-17 14:41:00,
2013-08-17 10:46:00,64.0,64.0,29.98,ENE,68,5.0,10.0,100,0.00,,,0.36,Weather View 32 v70,2013-08-17 14:46:00,
2013-08-17 10:51:00,64.0,64.0,29.98,ENE,68,1.0,10.0,100,0.00,,,0.36,Weather View 32 v70,2013-08-17 14:51:00,
2013-08-17 10:56:00,64.0,64.0,29.98,SSE,158,2.0,10.0,100,0.00,,,0.36,Weather View 32 v70,2013-08-17 14:56:00,
2013-08-17 11:01:00,64.0,64.0,29.98,NNW,338,1.0,10.0,100,0.00,,,0.36,Weather View 32 v70,2013-08-17 15:01:00,
2013-08-17 11:06:00,64.0,64.0,29.98,ENE,68,1.0,10.0,100,0.00,,,0.36,Weather View 32 v70,2013-08-17 15:06:00,
2013-08-17 11:11:00,64.0,64.0,29.98,ENE,68,0.0,10.0,100,0.00,,,0.36,Weather View 32 v70,2013-08-17 15:11:00,
2013-08-17 11:16:00,64.0,64.0,29.99,North,0,1.0,10.0,100,0.00,,,0.36,Weather View 32 v70,2013-08-17 15:16:00,
2013-08-17 11:21:00,64.0,64.0,29.99,North,0,1.0,10.0,100,0.00,,,0.36,Weather View 32 v70,2013-08-17 15:21:00,
2013-08-17 11:26:00,64.0,64.0,29.99,North,0,0.0,10.0,100,0.00,,,0.36,Weather View 32 v70,2013-08-17 15:26:00,
2013-08-17 11:31:00,64.0,64.0,29.99,NNW,338,3.0,10.0,100,0.00,,,0.36,Weather View 32 v70,2013-08-17 15:31:00,
2013-08-17 11:36:00,64.0,64.0,29.99,NNW,338,2.0,10.0,100,0.01,,,0.37,Weather View 32 v70,2013-08-17 15:36:00,
2013-08-17 11:41:00,64.0,64.0,29.98,ENE,68,1.0,10.0,100,0.03,,,0.39,Weather View 32 v70,2013-08-17 15:41:00,
2013-08-17 11:46:00,64.0,64.0,29.98,ENE,68,1.0,8.0,100,0.05,,,0.41,Weather View 32 v70,2013-08-17 15:46:00,
2013-08-17 11:51:00,64.0,64.0,29.98,ENE,68,4.0,8.0,100,0.08,,,0.44,Weather View 32 v70,2013-08-17 15:51:00,
2013-08-17 11:56:00,64.0,64.0,29.98,North,0,1.0,8.0,100,0.11,,,0.47,Weather View 32 v70,2013-08-17 15:56:00,
2013-08-17 12:01:00,64.0,64.0,29.98,NNW,338,2.0,8.0,100,0.13,,,0.49,Weather View 32 v70,2013-08-17 16:01:00,
2013-08-17 12:06:00,64.0,64.0,29.98,North,0,1.0,8.0,100,0.15,,,0.51,Weather View 32 v70,2013-08-17 16:06:00,
2013-08-17 12:11:00,64.0,64.0,29.98,North,0,1.0,8.0,100,0.17,,,0.53,Weather View 32 v70,2013-08-17 16:11:00,
2013-08-17 12:16:00,64.0,64.0,29.98,ENE,68,1.0,8.0,100,0.17,,,0.53,Weather View 32 v70,2013-08-17 16:16:00,
2013-08-17 12:21:00,64.0,64.0,29.98,North,0,1.0,8.0,100,0.18,,,0.54,Weather View 32 v70,2013-08-17 16:21:00,
2013-08-17 12:26:00,65.0,65.0,29.98,ENE,68,0.0,8.0,100,0.18,,,0.54,Weather View 32 v70,2013-08-17 16:26:00,
2013-08-17 12:31:00,64.0,64.0,29.98,North,0,3.0,6.0,100,0.19,,,0.55,Weather View 32 v70,2013-08-17 16:31:00,
2013-08-17 12:36:00,65.0,65.0,29.98,NNW,338,3.0,6.0,100,0.18,,,0.55,Weather View 32 v70,2013-08-17 16:36:00,
2013-08-17 12:41:00,65.0,65.0,29.98,ENE,68,3.0,7.0,100,0.16,,,0.55,Weather View 32 v70,2013-08-17 16:41:00,
2013-08-17 12:46:00,65.0,65.0,29.98,ENE,68,2.0,7.0,100,0.14,,,0.55,Weather View 32 v70,2013-08-17 16:46:00,
2013-08-17 12:51:00,65.0,65.0,29.98,North,0,1.0,7.0,100,0.11,,,0.55,Weather View 32 v70,2013-08-17 16:51:00,
2013-08-17 12:56:00,65.0,65.0,29.97,North,0,1.0,7.0,100,0.09,,,0.56,Weather View 32 v70,2013-08-17 16:56:00,
2013-08-17 13:01:00,65.0,65.0,29.97,ENE,68,1.0,7.0,100,0.07,,,0.56,Weather View 32 v70,2013-08-17 17:01:00,
2013-08-17 13:06:00,65.0,65.0,29.97,ENE,68,3.0,7.0,100,0.06,,,0.57,Weather View 32 v70,2013-08-17 17:06:00,
2013-08-17 13:11:00,65.0,65.0,29.97,ENE,68,0.0,7.0,100,0.07,,,0.59,Weather View 32 v70,2013-08-17 17:11:00,
2013-08-17 13:25:00,65.0,65.0,29.97,North,0,0.0,7.0,100,0.08,,,0.62,Weather View 32 v70,2013-08-17 17:25:00,
2013-08-17 13:30:00,65.0,65.0,29.97,North,0,1.0,7.0,100,0.09,,,0.63,Weather View 32 v70,2013-08-17 17:30:00,
2013-08-17 13:35:00,65.0,65.0,29.97,ENE,68,0.0,7.0,100,0.10,,,0.65,Weather View 32 v70,2013-08-17 17:35:00,
2013-08-17 13:40:00,65.0,65.0,29.96,ENE,68,1.0,6.0,100,0.10,,,0.65,Weather View 32 v70,2013-08-17 17:40:00,
2013-08-17 13:45:00,65.0,65.0,29.96,East,90,1.0,6.0,100,0.10,,,0.65,Weather View 32 v70,2013-08-17 17:45:00,
2013-08-17 13:50:00,66.0,66.0,29.96,East,90,1.0,6.0,100,-0.53,,,0.65,Weather View 32 v70,2013-08-17 17:50:00,
2013-08-17 13:55:00,66.0,66.0,29.96,ENE,68,0.0,6.0,100,0.09,,,0.65,Weather View 32 v70,2013-08-17 17:55:00,
2013-08-17 14:00:00,66.0,66.0,29.96,North,0,2.0,7.0,100,0.10,,,0.66,Weather View 32 v70,2013-08-17 18:00:00,
2013-08-17 14:05:00,66.0,66.0,29.95,ENE,68,5.0,8.0,100,0.09,,,0.66,Weather View 32 v70,2013-08-17 18:05:00,
2013-08-17 14:10:00,66.0,66.0,29.95,North,0,3.0,8.0,100,0.07,,,0.66,Weather View 32 v70,2013-08-17 18:10:00,
2013-08-17 14:15:00,66.0,66.0,29.95,ENE,68,0.0,8.0,100,0.06,,,0.66,Weather View 32 v70,2013-08-17 18:15:00,
2013-08-17 14:20:00,66.0,66.0,29.95,ENE,68,4.0,8.0,100,0.05,,,0.66,Weather View 32 v70,2013-08-17 18:20:00,
2013-08-17 14:25:00,66.0,66.0,29.95,North,0,2.0,9.0,100,0.04,,,0.66,Weather View 32 v70,2013-08-17 18:25:00,
2013-08-17 14:30:00,66.0,66.0,29.95,ENE,68,2.0,9.0,100,0.04,,,0.67,Weather View 32 v70,2013-08-17 18:30:00,
2013-08-17 14:35:00,66.0,66.0,29.95,ENE,68,2.0,9.0,100,0.02,,,0.67,Weather View 32 v70,2013-08-17 18:35:00,
2013-08-17 14:40:00,66.0,66.0,29.94,ENE,68,3.0,9.0,100,0.02,,,0.67,Weather View 32 v70,2013-08-17 18:40:00,
2013-08-17 14:45:00,66.0,66.0,29.94,East,90,5.0,10.0,100,0.02,,,0.67,Weather View 32 v70,2013-08-17 18:45:00,
2013-08-17 14:50:00,66.0,66.0,29.93,ENE,68,6.0,10.0,100,0.02,,,0.67,Weather View 32 v70,2013-08-17 18:50:00,
2013-08-17 14:55:00,66.0,66.0,29.94,ENE,68,1.0,10.0,100,0.02,,,0.67,Weather View 32 v70,2013-08-17 18:55:00,
2013-08-17 15:00:00,67.0,67.0,29.95,East,90,1.0,10.0,100,0.01,,,0.67,Weather View 32 v70,2013-08-17 19:00:00,
2013-08-17 15:05:00,66.0,66.0,29.95,NNW,338,3.0,10.0,100,0.01,,,0.67,Weather View 32 v70,2013-08-17 19:05:00,
2013-08-17 15:10:00,66.0,66.0,29.95,ENE,68,0.0,10.0,100,0.02,,,0.68,Weather View 32 v70,2013-08-17 19:10:00,
2013-08-17 15:15:00,66.0,66.0,29.94,North,0,1.0,10.0,100,0.03,,,0.69,Weather View 32 v70,2013-08-17 19:15:00,
2013-08-17 15:20:00,66.0,66.0,29.94,NNW,338,2.0,10.0,100,0.03,,,0.69,Weather View 32 v70,2013-08-17 19:20:00,
2013-08-17 15:25:00,66.0,66.0,29.94,NNW,338,2.0,10.0,100,0.03,,,0.69,Weather View 32 v70,2013-08-17 19:25:00,
2013-08-17 15:30:00,66.0,66.0,29.94,ENE,68,0.0,10.0,100,0.02,,,0.69,Weather View 32 v70,2013-08-17 19:30:00,
2013-08-17 15:35:00,66.0,66.0,29.94,ENE,68,1.0,10.0,100,0.02,,,0.69,Weather View 32 v70,2013-08-17 19:35:00,
2013-08-17 15:40:00,66.0,66.0,29.94,NNW,338,1.0,10.0,100,0.03,,,0.70,Weather View 32 v70,2013-08-17 19:40:00,
2013-08-17 15:45:00,66.0,66.0,29.94,ENE,68,1.0,10.0,100,0.03,,,0.70,Weather View 32 v70,2013-08-17 19:45:00,
2013-08-17 15:50:00,66.0,66.0,29.94,ENE,68,2.0,10.0,100,0.03,,,0.70,Weather View 32 v70,2013-08-17 19:50:00,
2013-08-17 15:55:00,67.0,67.0,29.94,ENE,68,0.0,5.0,100,0.03,,,0.70,Weather View 32 v70,2013-08-17 19:55:00,
2013-08-17 16:00:00,67.0,67.0,29.94,North,0,1.0,5.0,100,0.03,,,0.70,Weather View 32 v70,2013-08-17 20:00:00,
2013-08-17 16:05:00,66.0,66.0,29.94,North,0,0.0,5.0,100,0.03,,,0.70,Weather View 32 v70,2013-08-17 20:05:00,
2013-08-17 16:10:00,67.0,67.0,29.94,ENE,68,3.0,5.0,100,0.02,,,0.70,Weather View 32 v70,2013-08-17 20:10:00,
2013-08-17 16:15:00,67.0,67.0,29.94,North,0,1.0,5.0,100,0.01,,,0.70,Weather View 32 v70,2013-08-17 20:15:00,
2013-08-17 16:20:00,67.0,67.0,29.94,ENE,68,0.0,5.0,100,0.01,,,0.70,Weather View 32 v70,2013-08-17 20:20:00,
2013-08-17 16:25:00,67.0,67.0,29.94,North,0,1.0,9.0,100,0.01,,,0.70,Weather View 32 v70,2013-08-17 20:25:00,
2013-08-17 16:30:00,67.0,67.0,29.94,ENE,68,1.0,9.0,100,0.01,,,0.70,Weather View 32 v70,2013-08-17 20:30:00,
2013-08-17 16:35:00,67.0,67.0,29.94,NNW,338,3.0,9.0,100,0.01,,,0.70,Weather View 32 v70,2013-08-17 20:35:00,
2013-08-17 16:40:00,67.0,67.0,29.94,ENE,68,0.0,9.0,100,0.00,,,0.70,Weather View 32 v70,2013-08-17 20:40:00,
2013-08-17 16:45:00,67.0,67.0,29.94,North,0,1.0,9.0,100,0.00,,,0.70,Weather View 32 v70,2013-08-17 20:45:00,
2013-08-17 16:50:00,67.0,67.0,29.94,ENE,68,1.0,9.0,100,0.00,,,0.70,Weather View 32 v70,2013-08-17 20:50:00,
2013-08-17 16:55:00,66.0,66.0,29.94,ENE,68,1.0,9.0,100,0.00,,,0.70,Weather View 32 v70,2013-08-17 20:55:00,
2013-08-17 17:00:00,66.0,66.0,29.94,ENE,68,1.0,9.0,100,0.01,,,0.71,Weather View 32 v70,2013-08-17 21:00:00,
2013-08-17 17:05:00,66.0,66.0,29.94,ENE,68,4.0,9.0,100,0.01,,,0.71,Weather View 32 v70,2013-08-17 21:05:00,
2013-08-17 17:10:00,66.0,66.0,29.94,NNW,338,2.0,9.0,100,0.01,,,0.71,Weather View 32 v70,2013-08-17 21:10:00,
2013-08-17 17:15:00,66.0,66.0,29.94,ENE,68,1.0,9.0,100,0.01,,,0.71,Weather View 32 v70,2013-08-17 21:15:00,
2013-08-17 17:20:00,66.0,66.0,29.94,North,0,2.0,9.0,100,0.01,,,0.71,Weather View 32 v70,2013-08-17 21:20:00,
2013-08-17 17:25:00,66.0,66.0,29.94,ENE,68,3.0,8.0,100,0.01,,,0.71,Weather View 32 v70,2013-08-17 21:25:00,
2013-08-17 17:30:00,66.0,66.0,29.94,ENE,68,1.0,8.0,100,0.01,,,0.71,Weather View 32 v70,2013-08-17 21:30:00,
2013-08-17 17:35:00,66.0,66.0,29.94,East,90,0.0,8.0,100,0.01,,,0.71,Weather View 32 v70,2013-08-17 21:35:00,
2013-08-17 17:40:00,66.0,66.0,29.94,North,0,1.0,8.0,100,0.01,,,0.71,Weather View 32 v70,2013-08-17 21:40:00,
2013-08-17 17:45:00,66.0,66.0,29.94,North,0,1.0,8.0,100,0.02,,,0.72,Weather View 32 v70,2013-08-17 21:45:00,
2013-08-17 17:50:00,66.0,66.0,29.94,ENE,68,3.0,8.0,100,0.02,,,0.72,Weather View 32 v70,2013-08-17 21:50:00,
2013-08-17 17:55:00,66.0,66.0,29.94,North,0,1.0,8.0,100,0.02,,,0.72,Weather View 32 v70,2013-08-17 21:55:00,
2013-08-17 18:00:00,66.0,66.0,29.94,ENE,68,1.0,8.0,100,0.01,,,0.72,Weather View 32 v70,2013-08-17 22:00:00,
2013-08-17 18:05:00,66.0,66.0,29.94,ENE,68,1.0,8.0,100,0.01,,,0.72,Weather View 32 v70,2013-08-17 22:05:00,
2013-08-17 18:10:00,66.0,66.0,29.94,ENE,68,4.0,8.0,100,0.02,,,0.73,Weather View 32 v70,2013-08-17 22:10:00,
2013-08-17 18:15:00,66.0,66.0,29.94,North,0,3.0,6.0,100,0.02,,,0.73,Weather View 32 v70,2013-08-17 22:15:00,
2013-08-17 18:20:00,66.0,66.0,29.94,ENE,68,0.0,6.0,100,0.02,,,0.73,Weather View 32 v70,2013-08-17 22:20:00,
2013-08-17 18:25:00,66.0,66.0,29.94,North,0,0.0,6.0,100,0.02,,,0.73,Weather View 32 v70,2013-08-17 22:25:00,
2013-08-17 18:30:00,66.0,66.0,29.94,ENE,68,0.0,6.0,100,0.02,,,0.74,Weather View 32 v70,2013-08-17 22:30:00,
2013-08-17 18:35:00,66.0,66.0,29.94,ENE,68,0.0,6.0,100,0.03,,,0.74,Weather View 32 v70,2013-08-17 22:35:00,
2013-08-17 18:40:00,66.0,66.0,29.94,East,90,0.0,6.0,100,0.03,,,0.74,Weather View 32 v70,2013-08-17 22:40:00,
2013-08-17 18:45:00,66.0,66.0,29.94,East,90,0.0,6.0,100,0.02,,,0.74,Weather View 32 v70,2013-08-17 22:45:00,
2013-08-17 18:50:00,66.0,66.0,29.94,ENE,68,3.0,6.0,100,0.03,,,0.75,Weather View 32 v70,2013-08-17 22:50:00,
2013-08-17 18:55:00,66.0,66.0,29.94,ENE,68,0.0,6.0,100,0.03,,,0.75,Weather View 32 v70,2013-08-17 22:55:00,
2013-08-17 19:00:00,66.0,66.0,29.95,ENE,68,0.0,6.0,100,0.03,,,0.75,Weather View 32 v70,2013-08-17 23:00:00,
2013-08-17 19:05:00,66.0,66.0,29.94,ENE,68,1.0,6.0,100,0.04,,,0.76,Weather View 32 v70,2013-08-17 23:05:00,
2013-08-17 19:10:00,66.0,66.0,29.94,ENE,68,0.0,6.0,100,0.04,,,0.77,Weather View 32 v70,2013-08-17 23:10:00,
2013-08-17 19:15:00,66.0,66.0,29.94,ENE,68,0.0,5.0,100,0.04,,,0.77,Weather View 32 v70,2013-08-17 23:15:00,
2013-08-17 19:20:00,66.0,66.0,29.94,ENE,68,0.0,4.0,100,0.05,,,0.78,Weather View 32 v70,2013-08-17 23:20:00,
2013-08-17 19:25:00,66.0,66.0,29.94,NNW,338,1.0,4.0,100,0.06,,,0.79,Weather View 32 v70,2013-08-17 23:25:00,
2013-08-17 19:30:00,66.0,66.0,29.95,ENE,68,1.0,4.0,100,0.07,,,0.80,Weather View 32 v70,2013-08-17 23:30:00,
2013-08-17 19:35:00,66.0,66.0,29.95,ENE,68,0.0,5.0,100,0.07,,,0.81,Weather View 32 v70,2013-08-17 23:35:00,
2013-08-17 19:40:00,66.0,66.0,29.95,East,90,1.0,5.0,100,0.07,,,0.81,Weather View 32 v70,2013-08-17 23:40:00,
2013-08-17 19:45:00,66.0,66.0,29.95,ENE,68,0.0,5.0,100,0.07,,,0.81,Weather View 32 v70,2013-08-17 23:45:00,
2013-08-17 19:50:00,66.0,66.0,29.95,ENE,68,0.0,5.0,100,0.07,,,0.82,Weather View 32 v70,2013-08-17 23:50:00,
2013-08-17 19:55:00,66.0,66.0,29.95,ENE,68,1.0,5.0,100,0.07,,,0.82,Weather View 32 v70,2013-08-17 23:55:00,
2013-08-17 20:00:00,66.0,66.0,29.95,ENE,68,0.0,5.0,100,0.07,,,0.82,Weather View 32 v70,2013-08-18 00:00:00,
2013-08-17 20:05:00,66.0,66.0,29.95,ENE,68,3.0,5.0,100,0.07,,,0.83,Weather View 32 v70,2013-08-18 00:05:00,
2013-08-17 20:11:00,66.0,66.0,29.95,ENE,68,0.0,5.0,100,0.06,,,0.83,Weather View 32 v70,2013-08-18 00:11:00,
2013-08-17 20:16:00,66.0,66.0,29.95,East,90,0.0,5.0,100,0.06,,,0.83,Weather View 32 v70,2013-08-18 00:16:00,
2013-08-17 20:20:00,66.0,66.0,29.95,ENE,68,0.0,5.0,100,0.05,,,0.83,Weather View 32 v70,2013-08-18 00:20:00,
2013-08-17 20:26:00,66.0,66.0,29.95,ENE,68,0.0,5.0,100,0.04,,,0.83,Weather View 32 v70,2013-08-18 00:26:00,
2013-08-17 20:31:00,66.0,66.0,29.95,NNW,338,0.0,5.0,100,0.03,,,0.83,Weather View 32 v70,2013-08-18 00:31:00,
2013-08-17 20:36:00,66.0,66.0,29.95,ENE,68,0.0,4.0,100,0.02,,,0.83,Weather View 32 v70,2013-08-18 00:36:00,
2013-08-17 20:41:00,66.0,66.0,29.95,ENE,68,0.0,4.0,100,0.02,,,0.83,Weather View 32 v70,2013-08-18 00:41:00,
2013-08-17 20:46:00,66.0,66.0,29.95,ENE,68,0.0,4.0,100,0.02,,,0.83,Weather View 32 v70,2013-08-18 00:46:00,
2013-08-17 20:51:00,66.0,66.0,29.95,ENE,68,2.0,4.0,100,0.01,,,0.83,Weather View 32 v70,2013-08-18 00:51:00,
2013-08-17 20:56:00,66.0,66.0,29.95,ENE,68,0.0,3.0,100,0.01,,,0.83,Weather View 32 v70,2013-08-18 00:56:00,
2013-08-17 21:01:00,66.0,66.0,29.95,ENE,68,0.0,3.0,100,0.01,,,0.83,Weather View 32 v70,2013-08-18 01:01:00,
2013-08-17 21:06:00,66.0,66.0,29.94,ENE,68,0.0,3.0,100,0.00,,,0.83,Weather View 32 v70,2013-08-18 01:06:00,
2013-08-17 21:11:00,66.0,66.0,29.95,ENE,68,0.0,4.0,100,0.00,,,0.83,Weather View 32 v70,2013-08-18 01:11:00,
2013-08-17 21:16:00,66.0,66.0,29.95,ENE,68,0.0,4.0,100,0.00,,,0.83,Weather View 32 v70,2013-08-18 01:16:00,
2013-08-17 21:21:00,66.0,66.0,29.95,ENE,68,1.0,4.0,100,0.00,,,0.83,Weather View 32 v70,2013-08-18 01:21:00,
2013-08-17 21:26:00,66.0,66.0,29.95,ENE,68,0.0,4.0,100,0.00,,,0.83,Weather View 32 v70,2013-08-18 01:26:00,
2013-08-17 21:31:00,66.0,66.0,29.95,ENE,68,0.0,4.0,100,0.00,,,0.83,Weather View 32 v70,2013-08-18 01:31:00,
2013-08-17 21:36:00,66.0,66.0,29.95,East,90,0.0,4.0,100,0.00,,,0.83,Weather View 32 v70,2013-08-18 01:36:00,
2013-08-17 21:41:00,66.0,66.0,29.95,East,90,0.0,4.0,100,0.00,,,0.84,Weather View 32 v70,2013-08-18 01:41:00,
2013-08-17 21:46:00,66.0,66.0,29.96,ENE,68,0.0,4.0,100,0.01,,,0.84,Weather View 32 v70,2013-08-18 01:46:00,
2013-08-17 21:51:00,66.0,66.0,29.96,ENE,68,0.0,4.0,100,0.01,,,0.84,Weather View 32 v70,2013-08-18 01:51:00,
2013-08-17 21:56:00,66.0,66.0,29.96,East,90,0.0,4.0,100,0.01,,,0.84,Weather View 32 v70,2013-08-18 01:56:00,
2013-08-17 22:01:00,66.0,66.0,29.96,ENE,68,0.0,4.0,100,0.01,,,0.84,Weather View 32 v70,2013-08-18 02:01:00,
2013-08-17 22:06:00,66.0,66.0,29.96,ENE,68,0.0,4.0,100,0.01,,,0.84,Weather View 32 v70,2013-08-18 02:06:00,
2013-08-17 22:11:00,66.0,66.0,29.96,ENE,68,0.0,3.0,100,0.01,,,0.84,Weather View 32 v70,2013-08-18 02:11:00,
2013-08-17 22:16:00,66.0,66.0,29.96,ENE,68,0.0,3.0,100,0.01,,,0.84,Weather View 32 v70,2013-08-18 02:16:00,
2013-08-17 22:21:00,66.0,66.0,29.96,ENE,68,0.0,3.0,100,0.01,,,0.84,Weather View 32 v70,2013-08-18 02:21:00,
2013-08-17 22:26:00,66.0,66.0,29.97,North,0,0.0,3.0,100,-0.81,,,0.84,Weather View 32 v70,2013-08-18 02:26:00,
2013-08-17 22:31:00,66.0,66.0,29.96,ENE,68,0.0,3.0,100,-0.81,,,0.84,Weather View 32 v70,2013-08-18 02:31:00,
2013-08-17 22:36:00,66.0,66.0,29.96,ENE,68,0.0,3.0,100,0.01,,,0.84,Weather View 32 v70,2013-08-18 02:36:00,
2013-08-17 22:41:00,66.0,66.0,29.97,ENE,68,0.0,3.0,100,0.00,,,0.84,Weather View 32 v70,2013-08-18 02:41:00,
2013-08-17 22:46:00,66.0,66.0,29.97,ENE,68,0.0,3.0,100,0.00,,,0.84,Weather View 32 v70,2013-08-18 02:46:00,
2013-08-17 22:51:00,67.0,67.0,29.97,ENE,68,0.0,2.0,100,0.00,,,0.84,Weather View 32 v70,2013-08-18 02:51:00,
2013-08-17 22:56:00,67.0,67.0,29.97,East,90,0.0,2.0,100,0.00,,,0.84,Weather View 32 v70,2013-08-18 02:56:00,
2013-08-17 23:01:00,67.0,67.0,29.97,East,90,0.0,2.0,100,0.00,,,0.84,Weather View 32 v70,2013-08-18 03:01:00,
2013-08-17 23:06:00,67.0,67.0,29.97,East,90,0.0,2.0,100,0.00,,,0.84,Weather View 32 v70,2013-08-18 03:06:00,
2013-08-17 23:11:00,67.0,67.0,29.97,East,90,0.0,2.0,100,0.00,,,0.84,Weather View 32 v70,2013-08-18 03:11:00,
2013-08-17 23:16:00,67.0,67.0,29.97,East,90,0.0,2.0,100,0.00,,,0.84,Weather View 32 v70,2013-08-18 03:16:00,
2013-08-17 23:21:00,67.0,67.0,29.97,East,90,0.0,1.0,100,0.00,,,0.84,Weather View 32 v70,2013-08-18 03:21:00,
2013-08-17 23:26:00,67.0,67.0,29.97,East,90,0.0,1.0,100,0.00,,,0.84,Weather View 32 v70,2013-08-18 03:26:00,
2013-08-17 23:31:00,67.0,67.0,29.97,East,90,0.0,0.0,100,0.00,,,0.84,Weather View 32 v70,2013-08-18 03:31:00,
2013-08-17 23:36:00,67.0,67.0,29.97,East,90,0.0,0.0,100,0.00,,,0.84,Weather View 32 v70,2013-08-18 03:36:00,
2013-08-17 23:41:00,67.0,67.0,29.97,East,90,0.0,0.0,100,0.00,,,0.84,Weather View 32 v70,2013-08-18 03:41:00,
2013-08-17 23:46:00,67.0,67.0,29.97,East,90,0.0,0.0,100,0.00,,,0.84,Weather View 32 v70,2013-08-18 03:46:00,
2013-08-17 23:51:00,67.0,67.0,29.97,East,90,0.0,0.0,100,0.00,,,0.84,Weather View 32 v70,2013-08-18 03:51:00,
2013-08-17 23:56:00,67.0,67.0,29.97,East,90,0.0,0.0,100,0.00,,,0.84,Weather View 32 v70,2013-08-18 03:56:00,